Time;durP1;ratioP1;P1;durP2;ratioP2;P2;SDS_P1;SDS_P2;PMS_P1;PMS_P2;Temp;Humidity;BMP_temperature;BMP_pressure;BME280_temperature;BME280_humidity;BME280_pressure;Samples;Min_cycle;Max_cycle;Signal;HPM_P1;HPM_P2
2021/03/15 00:01:15;;;;;;;9.00;3.42;;;5.40;85.10;;;4.26;71.59;98196.44;5105928;28;20724;-84
2021/03/15 00:03:42;;;;;;;7.30;3.30;;;5.40;85.30;;;4.26;71.54;98193.03;5108697;28;20822;-83
2021/03/15 00:06:09;;;;;;;8.57;3.50;;;5.40;85.10;;;4.21;71.83;98185.72;5110406;28;20420;-81
2021/03/15 00:08:35;;;;;;;6.50;3.10;;;5.30;85.40;;;4.16;71.76;98193.34;5107889;28;20406;-83
2021/03/15 00:11:03;;;;;;;6.65;3.15;;;5.20;85.20;;;4.08;71.71;98193.47;5105068;28;20485;-85
2021/03/15 00:13:29;;;;;;;9.52;3.70;;;5.20;85.10;;;4.18;71.39;98188.72;5105814;28;20822;-84
2021/03/15 00:15:57;;;;;;;7.13;3.40;;;5.20;85.20;;;4.17;71.52;98186.28;5108027;28;20532;-84
2021/03/15 00:18:24;;;;;;;6.97;3.33;;;5.30;85.20;;;4.09;71.82;98182.00;5112998;28;20498;-81
2021/03/15 00:20:51;;;;;;;6.80;3.17;;;5.20;85.30;;;4.02;72.16;98182.94;5113922;28;20681;-83
2021/03/15 00:23:17;;;;;;;7.28;3.53;;;5.20;85.30;;;3.95;72.51;98182.09;5112706;28;20394;-83
2021/03/15 00:25:44;;;;;;;6.20;3.63;;;5.10;85.90;;;3.79;72.86;98176.13;5107777;28;20409;-83
2021/03/15 00:28:11;;;;;;;7.80;3.67;;;5.00;86.10;;;3.84;72.87;98173.75;5107622;28;20508;-83
2021/03/15 00:30:37;;;;;;;7.70;3.43;;;5.00;86.50;;;3.96;72.36;98168.00;5107141;28;20466;-83
2021/03/15 00:33:04;;;;;;;7.10;3.50;;;5.00;86.10;;;3.96;72.39;98171.44;5107218;28;20424;-84
2021/03/15 00:35:31;;;;;;;8.70;3.53;;;5.00;86.20;;;4.03;72.35;98168.88;5107526;28;20413;-84
2021/03/15 00:37:57;;;;;;;7.97;3.67;;;5.10;85.90;;;4.00;71.97;98175.28;5089472;28;20501;-84
2021/03/15 00:40:24;;;;;;;7.57;3.72;;;5.10;85.70;;;4.00;72.25;98172.66;5107171;28;20512;-84
2021/03/15 00:42:52;;;;;;;6.75;3.67;;;5.10;85.80;;;4.02;71.67;98169.84;5107169;28;20430;-84
2021/03/15 00:45:21;;;;;;;8.38;3.60;;;5.10;85.50;;;4.03;71.85;98164.44;5106929;28;20417;-83
2021/03/15 00:47:48;;;;;;;5.90;3.47;;;5.10;85.50;;;3.97;71.92;98157.34;5105874;28;20441;-84
2021/03/15 00:50:23;;;;;;;6.78;3.55;;;5.10;85.50;;;3.77;72.83;98162.41;5105170;28;20463;-85
2021/03/15 00:52:49;;;;;;;6.82;3.40;;;5.00;86.80;;;3.85;72.86;98154.41;5106431;28;20702;-84
2021/03/15 00:55:16;;;;;;;6.75;3.85;;;4.90;86.40;;;3.79;72.79;98152.56;5105944;28;20835;-82
2021/03/15 00:57:45;;;;;;;7.10;3.50;;;4.90;86.50;;;3.81;72.65;98149.75;5105835;28;20449;-82
2021/03/15 01:00:16;;;;;;;6.35;3.40;;;4.90;86.50;;;3.82;72.82;98148.75;5093803;28;20484;-84
2021/03/15 01:02:43;;;;;;;5.33;3.23;;;4.90;86.50;;;3.81;73.03;98149.75;5108362;28;20527;-84
2021/03/15 01:05:12;;;;;;;7.03;3.47;;;4.90;86.80;;;3.66;73.35;98157.69;5110325;28;20517;-84
2021/03/15 01:07:38;;;;;;;9.23;3.73;;;4.80;86.80;;;3.65;73.31;98156.06;5112689;28;20897;-84
2021/03/15 01:10:10;;;;;;;8.35;3.63;;;4.80;87.10;;;3.62;73.45;98151.19;5091412;28;20421;-86
2021/03/15 01:12:36;;;;;;;8.82;3.55;;;4.80;87.30;;;3.76;73.23;98152.91;5107947;28;20467;-83
2021/03/15 01:15:07;;;;;;;10.68;3.50;;;4.80;87.10;;;3.91;72.37;98152.06;5107538;28;20432;-83
2021/03/15 01:17:33;;;;;;;5.97;3.22;;;4.90;86.30;;;3.90;72.40;98148.63;5088436;28;20414;-82
2021/03/15 01:20:00;;;;;;;9.17;3.50;;;5.00;86.10;;;3.86;72.37;98148.19;5106078;28;20417;-84
2021/03/15 01:22:31;;;;;;;7.43;3.83;;;5.00;86.10;;;3.87;72.36;98151.63;5106161;28;20406;-83
2021/03/15 01:24:58;;;;;;;4.88;3.22;;;4.90;86.20;;;3.78;72.59;98143.06;5108071;28;20510;-83
2021/03/15 01:27:24;;;;;;;7.72;3.75;;;4.90;86.10;;;3.78;72.74;98148.31;5088756;28;20414;-83
2021/03/15 01:29:50;;;;;;;8.10;3.63;;;4.80;86.30;;;3.57;73.08;98148.34;5106827;28;20670;-83
2021/03/15 01:32:17;;;;;;;10.05;3.90;;;4.70;86.60;;;3.56;73.20;98151.94;5108432;28;20410;-82
2021/03/15 01:34:43;;;;;;;9.00;4.22;;;4.70;86.80;;;3.64;73.05;98143.16;5110417;28;20417;-84
2021/03/15 01:37:10;;;;;;;9.90;5.03;;;4.70;87.00;;;3.62;73.22;98143.34;5110457;28;20394;-82
2021/03/15 01:39:36;;;;;;;9.68;4.32;;;4.70;86.90;;;3.60;73.08;98142.75;5093072;28;20704;-83
2021/03/15 01:42:04;;;;;;;8.23;4.13;;;4.70;86.90;;;3.59;73.29;98143.72;5109554;28;20413;-83
2021/03/15 01:44:31;;;;;;;6.60;3.95;;;4.70;86.90;;;3.47;73.83;98147.81;5089018;28;20911;-84
2021/03/15 01:46:57;;;;;;;8.75;4.18;;;4.60;87.40;;;3.41;74.50;98141.53;5088547;28;20418;-84
2021/03/15 01:49:23;;;;;;;8.23;3.85;;;4.50;88.80;;;3.46;73.88;98130.50;5106560;28;20410;-83
2021/03/15 01:51:50;;;;;;;10.90;4.63;;;4.50;87.80;;;3.34;74.13;98124.97;5108190;28;20692;-84
2021/03/15 01:54:19;;;;;;;9.98;4.07;;;4.50;87.70;;;3.35;74.27;98123.97;5108268;28;20426;-83
2021/03/15 01:56:46;;;;;;;8.57;4.00;;;4.50;88.10;;;3.36;74.45;98124.78;5094990;28;20424;-83
2021/03/15 01:59:16;;;;;;;7.78;4.38;;;4.50;88.10;;;3.32;73.89;98118.28;5095860;28;20406;-82
2021/03/15 02:01:43;;;;;;;8.18;4.05;;;4.50;87.90;;;3.33;74.23;98112.06;5113245;28;20625;-83
2021/03/15 02:04:10;;;;;;;7.67;4.03;;;4.40;88.00;;;3.38;74.01;98114.97;5091210;28;20446;-85
2021/03/15 02:06:36;;;;;;;9.60;4.03;;;4.50;88.10;;;3.27;74.29;98105.78;5108958;28;20422;-84
2021/03/15 02:09:03;;;;;;;10.48;4.07;;;4.50;88.10;;;3.20;74.32;98097.06;5090410;28;20505;-84
2021/03/15 02:11:39;;;;;;;9.48;4.07;;;4.40;88.30;;;3.14;74.56;98094.38;5115816;28;20482;-82
2021/03/15 02:14:41;;;;;;;10.90;3.92;;;4.40;88.20;;;3.10;75.03;98091.31;5116577;28;20429;-83
2021/03/15 02:17:18;;;;;;;8.83;3.90;;;4.30;88.90;;;3.21;74.64;98085.59;5113848;28;20406;-84
2021/03/15 02:20:25;;;;;;;9.90;3.95;;;4.30;88.70;;;3.11;74.73;98078.06;5103230;28;20436;-84
2021/03/15 02:23:00;;;;;;;6.85;3.60;;;4.30;88.40;;;3.35;74.02;98073.44;5103627;28;20409;-83
2021/03/15 02:26:11;;;;;;;8.40;3.85;;;4.40;88.50;;;3.31;74.49;98074.81;5103165;28;20410;-83
2021/03/15 02:29:31;;;;;;;10.18;4.57;;;4.40;88.20;;;3.24;74.53;98071.31;5103673;28;20468;-84
2021/03/15 02:32:57;;;;;;;12.33;4.37;;;4.40;88.50;;;3.06;75.43;98063.94;5102701;28;20478;-84
2021/03/15 02:35:27;;;;;;;7.47;3.72;;;4.20;88.90;;;3.12;74.51;98050.09;4967947;28;20436;-84
2021/03/15 02:38:01;;;;;;;12.25;4.10;;;4.30;88.50;;;3.08;74.58;98054.09;5022692;28;20502;-83
2021/03/15 02:40:32;;;;;;;9.43;4.10;;;4.30;88.60;;;3.22;74.59;98055.03;5080390;28;20512;-84
2021/03/15 02:43:05;;;;;;;10.38;4.53;;;4.30;88.90;;;3.21;75.01;98045.56;5087777;28;20426;-83
2021/03/15 02:45:34;;;;;;;10.27;3.83;;;4.30;88.90;;;3.16;74.97;98040.09;5107119;28;20474;-84
2021/03/15 02:48:04;;;;;;;12.10;4.57;;;4.30;88.90;;;3.20;75.00;98039.50;5113341;28;20412;-84
2021/03/15 02:50:33;;;;;;;10.00;3.60;;;4.40;89.10;;;3.30;74.78;98034.78;5116162;28;20418;-84
2021/03/15 02:53:02;;;;;;;10.25;3.65;;;4.40;88.70;;;3.26;74.80;98030.09;5115867;28;20488;-84
2021/03/15 02:55:29;;;;;;;13.43;4.43;;;4.40;88.50;;;3.30;74.92;98033.97;5110702;28;20876;-84
2021/03/15 02:57:57;;;;;;;13.93;4.13;;;4.50;88.80;;;3.33;74.34;98018.69;5103716;28;20402;-84
2021/03/15 03:00:26;;;;;;;11.23;3.67;;;4.50;88.60;;;3.44;74.11;98020.78;5103330;28;20452;-84
2021/03/15 03:02:53;;;;;;;9.38;3.78;;;4.60;88.20;;;3.58;73.73;98018.28;5103570;28;20488;-84
2021/03/15 03:05:20;;;;;;;9.50;3.95;;;4.60;87.90;;;3.58;73.60;98026.94;5085565;28;20844;-83
2021/03/15 03:07:50;;;;;;;9.75;3.28;;;4.70;87.50;;;3.60;73.30;98021.50;5102810;28;20524;-83
2021/03/15 03:10:20;;;;;;;11.32;3.38;;;4.70;87.20;;;3.45;73.78;98014.56;5101692;28;20436;-84
2021/03/15 03:12:50;;;;;;;10.48;4.10;;;4.60;87.30;;;3.59;73.79;98009.41;5101748;28;20417;-83
2021/03/15 03:15:20;;;;;;;12.23;3.85;;;4.60;87.70;;;3.54;73.48;98001.31;5100420;28;20417;-82
2021/03/15 03:17:48;;;;;;;11.95;3.85;;;4.70;87.40;;;3.42;73.81;98001.03;5100665;28;20742;-84
2021/03/15 03:20:20;;;;;;;12.50;3.92;;;4.60;87.50;;;3.51;73.53;97994.66;5100303;28;20410;-83
2021/03/15 03:22:50;;;;;;;14.05;4.30;;;4.60;87.60;;;3.44;73.75;97997.25;5101042;28;20434;-83
2021/03/15 03:25:19;;;;;;;11.60;4.20;;;4.60;87.40;;;3.26;74.65;97994.28;5100959;28;20483;-83
2021/03/15 03:27:53;;;;;;;11.05;3.70;;;4.50;88.20;;;3.22;74.66;97990.44;5081585;28;20459;-84
2021/03/15 03:30:22;;;;;;;8.50;3.88;;;4.40;88.50;;;3.30;74.84;97987.69;5098092;28;20402;-84
2021/03/15 03:32:51;;;;;;;8.02;3.63;;;4.50;88.70;;;3.33;74.57;97989.09;5098822;28;20521;-83
2021/03/15 03:35:18;;;;;;;9.57;4.07;;;4.50;88.70;;;3.22;75.10;97987.81;5098840;28;20447;-83
2021/03/15 03:37:44;;;;;;;10.30;3.93;;;4.40;88.60;;;3.27;74.82;97976.78;5080096;28;20406;-83
2021/03/15 03:40:13;;;;;;;8.70;3.83;;;4.50;88.70;;;3.26;75.14;97975.97;5096976;28;20410;-83
2021/03/15 03:42:40;;;;;;;14.98;4.13;;;4.40;88.90;;;3.20;75.38;97974.13;5099716;28;20397;-84
2021/03/15 03:45:08;;;;;;;8.68;3.80;;;4.40;89.00;;;3.25;75.21;97966.50;5103482;28;20413;-83
2021/03/15 03:47:36;;;;;;;10.32;4.32;;;4.50;89.00;;;3.30;74.81;97974.59;5107056;28;20449;-83
2021/03/15 03:50:05;;;;;;;9.35;3.85;;;4.50;88.70;;;3.37;74.89;97972.03;5111950;28;20417;-84
2021/03/15 03:52:33;;;;;;;10.68;3.58;;;4.50;88.80;;;3.42;74.54;97967.03;5108531;28;20459;-84
2021/03/15 03:55:07;;;;;;;12.13;3.80;;;4.60;88.50;;;3.46;74.53;97974.28;5107451;28;20569;-84
2021/03/15 03:57:38;;;;;;;12.45;4.03;;;4.60;88.30;;;3.54;74.31;97965.47;5107015;28;20738;-82
2021/03/15 04:00:08;;;;;;;8.77;3.67;;;4.70;88.10;;;3.59;74.08;97975.41;5106779;28;20820;-83
2021/03/15 04:02:44;;;;;;;8.63;4.17;;;4.70;88.00;;;3.63;74.03;97974.81;5106421;28;20410;-84
2021/03/15 04:05:19;;;;;;;14.07;3.35;;;4.80;88.10;;;3.57;74.36;97974.78;5106478;28;20438;-84
2021/03/15 04:07:50;;;;;;;10.15;3.67;;;4.70;88.10;;;3.81;73.57;97977.75;5106405;28;20413;-84
2021/03/15 04:10:17;;;;;;;11.27;3.88;;;4.80;88.00;;;3.62;74.52;97978.41;5105984;28;20426;-83
2021/03/15 04:12:50;;;;;;;8.68;3.45;;;4.80;88.10;;;3.68;74.52;97971.63;5106515;28;20413;-82
2021/03/15 04:15:18;;;;;;;11.98;3.35;;;4.80;88.50;;;3.60;74.94;97969.16;5116517;28;20421;-84
2021/03/15 04:17:47;;;;;;;7.88;3.35;;;4.80;88.70;;;3.55;75.10;97967.09;5111916;28;20394;-84
2021/03/15 04:20:21;;;;;;;8.20;3.10;;;4.70;88.70;;;3.52;75.50;97967.50;5090231;28;20521;-85
2021/03/15 04:22:53;;;;;;;7.03;3.50;;;4.70;89.20;;;3.50;75.33;97962.44;5107431;28;20432;-84
2021/03/15 04:25:21;;;;;;;10.00;3.37;;;4.70;89.40;;;3.47;75.77;97962.00;5107583;28;20406;-84
2021/03/15 04:27:52;;;;;;;7.20;3.30;;;4.70;89.70;;;3.34;75.94;97949.66;5107150;28;20439;-83
2021/03/15 04:30:21;;;;;;;8.52;3.60;;;4.60;89.80;;;3.27;76.48;97950.63;5107190;28;20704;-84
2021/03/15 04:32:52;;;;;;;9.90;3.97;;;4.50;90.20;;;3.25;77.18;97950.78;5108478;28;20501;-83
2021/03/15 04:35:22;;;;;;;10.30;4.00;;;4.50;90.40;;;3.24;77.32;97948.38;5113755;28;20484;-83
2021/03/15 04:37:50;;;;;;;9.27;3.75;;;4.40;90.60;;;3.33;76.66;97940.19;5113463;28;20428;-83
2021/03/15 04:40:18;;;;;;;8.57;3.40;;;4.50;90.50;;;3.22;77.26;97940.72;5107132;28;20504;-84
2021/03/15 04:42:45;;;;;;;9.55;3.63;;;4.40;90.50;;;3.18;77.41;97933.44;5106171;28;20910;-83
2021/03/15 04:45:15;;;;;;;7.60;3.45;;;4.40;90.60;;;3.09;77.68;97923.13;5105831;28;20418;-83
2021/03/15 04:47:42;;;;;;;8.00;3.40;;;4.30;90.70;;;3.37;76.61;97923.13;5107845;28;20474;-80
2021/03/15 04:50:11;;;;;;;9.15;3.20;;;4.50;90.50;;;3.45;76.51;97927.41;5111172;28;20436;-80
2021/03/15 04:52:38;;;;;;;9.52;3.72;;;4.60;90.30;;;3.59;76.09;97920.41;5110360;28;20780;-80
2021/03/15 04:55:08;;;;;;;6.97;3.15;;;4.70;90.20;;;3.59;76.16;97917.81;5106493;28;20409;-80
2021/03/15 04:57:36;;;;;;;9.75;3.50;;;4.80;90.10;;;3.65;75.52;97919.66;5107035;28;20441;-84
2021/03/15 05:00:07;;;;;;;10.68;3.58;;;4.80;89.50;;;3.67;75.69;97908.00;5106682;28;20453;-82
2021/03/15 05:02:35;;;;;;;11.88;3.70;;;4.90;89.50;;;3.65;75.92;97904.75;5104763;28;20426;-82
2021/03/15 05:05:04;;;;;;;9.23;3.53;;;4.90;89.70;;;3.67;75.76;97905.38;5106075;28;20567;-83
2021/03/15 05:07:31;;;;;;;7.70;3.67;;;4.90;89.80;;;3.76;75.30;97901.56;5105785;28;20430;-83
2021/03/15 05:10:00;;;;;;;7.18;3.20;;;4.90;89.40;;;3.71;75.74;97903.97;5106022;28;20410;-81
2021/03/15 05:12:27;;;;;;;5.70;3.17;;;4.90;89.60;;;3.78;75.51;97899.56;5106353;28;20406;-83
2021/03/15 05:14:55;;;;;;;7.22;3.72;;;4.90;89.50;;;3.71;75.99;97897.91;5104728;28;20540;-82
2021/03/15 05:17:22;;;;;;;12.63;4.03;;;4.90;89.70;;;3.76;75.88;97898.16;5104832;28;20762;-81
2021/03/15 05:19:49;;;;;;;7.20;3.30;;;4.90;89.80;;;3.69;75.91;97897.28;5105127;28;20426;-80
2021/03/15 05:22:16;;;;;;;8.02;3.80;;;4.90;89.70;;;3.66;76.10;97895.91;5110564;28;20402;-80
2021/03/15 05:24:44;;;;;;;6.60;3.70;;;4.90;89.70;;;3.74;75.79;97892.31;5110325;28;20950;-79
2021/03/15 05:27:13;;;;;;;9.82;3.78;;;4.90;89.90;;;3.78;75.60;97886.47;5110326;28;20444;-80
2021/03/15 05:29:41;;;;;;;7.38;3.35;;;4.90;89.80;;;3.69;75.91;97877.16;5109929;28;20489;-80
2021/03/15 05:32:13;;;;;;;8.03;3.50;;;4.90;90.00;;;3.63;76.53;97877.13;5107957;28;20418;-81
2021/03/15 05:34:41;;;;;;;8.93;3.70;;;4.90;90.30;;;3.59;76.66;97875.94;5107134;28;20414;-82
2021/03/15 05:37:10;;;;;;;8.57;4.10;;;4.80;90.20;;;3.61;76.43;97872.09;5105203;28;20390;-81
2021/03/15 05:39:37;;;;;;;10.57;4.45;;;4.80;90.20;;;3.61;76.99;97869.47;5103389;28;20432;-80
2021/03/15 05:42:24;;;;;;;6.47;3.47;;;4.80;90.40;;;3.63;76.58;97864.84;5104366;28;20406;-83
2021/03/15 05:45:05;;;;;;;7.85;3.22;;;4.80;90.30;;;3.68;76.65;97865.09;5105604;28;20489;-83
2021/03/15 05:48:31;;;;;;;7.88;3.55;;;4.90;90.30;;;3.68;77.27;97859.06;5088690;28;20425;-82
2021/03/15 05:52:13;;;;;;;7.03;3.33;;;4.90;90.50;;;3.73;76.83;97849.59;5063006;28;20414;-80
2021/03/15 05:55:36;;;;;;;6.80;3.60;;;5.00;90.20;;;3.76;76.56;97843.97;5004277;28;20539;-81
2021/03/15 05:58:52;;;;;;;7.82;3.65;;;5.00;90.20;;;3.73;76.68;97835.72;5009437;28;20508;-82
2021/03/15 06:01:55;;;;;;;8.82;4.05;;;4.90;90.20;;;3.76;77.06;97833.47;5086820;28;20521;-82
2021/03/15 06:04:45;;;;;;;5.45;3.30;;;5.00;90.40;;;3.64;76.66;97824.59;5105527;28;20413;-81
2021/03/15 06:07:19;;;;;;;6.53;3.37;;;4.90;90.30;;;3.70;76.44;97818.56;5105601;28;20812;-80
2021/03/15 06:10:06;;;;;;;4.97;3.40;;;4.80;90.30;;;3.65;75.91;97825.41;5105567;28;20413;-80
2021/03/15 06:12:49;;;;;;;4.85;2.97;;;4.90;90.00;;;3.63;76.75;97820.34;5109454;28;20402;-82
2021/03/15 06:15:18;;;;;;;8.63;3.40;;;4.80;90.30;;;3.60;76.48;97819.97;5106874;28;20482;-82
2021/03/15 06:17:45;;;;;;;8.05;3.65;;;4.80;90.10;;;3.57;76.38;97815.09;5106130;28;20496;-81
2021/03/15 06:20:14;;;;;;;7.88;3.08;;;4.80;90.30;;;3.61;76.62;97811.09;5108008;28;20406;-82
2021/03/15 06:22:40;;;;;;;7.65;3.20;;;4.80;90.20;;;3.62;76.99;97808.28;5105624;28;20402;-80
2021/03/15 06:25:11;;;;;;;8.70;4.50;;;4.80;90.60;;;3.55;77.26;97799.59;5106731;28;20400;-81
2021/03/15 06:27:43;;;;;;;8.40;4.30;;;4.80;90.50;;;3.58;76.68;97803.63;5108859;28;20424;-83
2021/03/15 06:30:10;;;;;;;7.35;3.50;;;4.80;90.40;;;3.56;76.59;97797.78;5105975;28;20433;-81
2021/03/15 06:32:38;;;;;;;8.93;3.72;;;4.80;90.20;;;3.52;77.58;97791.34;5104887;28;20746;-81
2021/03/15 06:35:08;;;;;;;9.98;3.60;;;4.70;90.60;;;3.52;77.30;97789.53;5106192;28;20471;-82
2021/03/15 06:37:35;;;;;;;6.10;3.45;;;4.70;90.60;;;3.49;77.27;97782.06;5106664;28;20498;-82
2021/03/15 06:40:03;;;;;;;7.65;4.13;;;4.70;90.50;;;3.60;77.26;97778.88;5104638;28;20456;-81
2021/03/15 06:42:32;;;;;;;4.88;3.17;;;4.80;90.70;;;3.49;77.05;97776.81;5088156;28;20489;-80
2021/03/15 06:44:59;;;;;;;5.38;3.40;;;4.70;90.30;;;3.60;76.53;97778.09;5105531;28;20406;-82
2021/03/15 06:47:26;;;;;;;7.43;3.33;;;4.70;90.30;;;3.64;76.27;97771.44;5105896;28;20456;-81
2021/03/15 06:49:54;;;;;;;6.87;3.00;;;4.80;90.20;;;3.69;76.19;97779.50;5104977;28;20413;-80
2021/03/15 06:52:21;;;;;;;4.93;3.20;;;4.90;90.10;;;3.70;76.60;97768.81;5104253;28;20414;-82
2021/03/15 06:54:57;;;;;;;6.10;3.10;;;4.90;90.20;;;3.76;76.58;97764.63;5103727;28;20414;-81
2021/03/15 06:57:24;;;;;;;7.43;3.40;;;4.90;90.20;;;3.90;75.93;97768.88;5103585;28;20483;-80
2021/03/15 06:59:55;;;;;;;3.53;2.53;;;5.00;90.00;;;3.85;75.88;97764.22;5104957;28;20467;-82
2021/03/15 07:02:37;;;;;;;8.57;3.20;;;5.00;89.50;;;3.96;75.75;97759.41;5105142;28;20406;-81
2021/03/15 07:05:09;;;;;;;6.43;2.60;;;5.10;89.90;;;3.95;75.96;97757.81;5104039;28;20428;-82
2021/03/15 07:07:38;;;;;;;4.07;2.40;;;5.20;90.00;;;4.06;75.53;97760.63;5103574;28;20487;-81
2021/03/15 07:10:16;;;;;;;7.68;4.63;;;5.20;89.80;;;4.02;75.88;97761.22;5102110;28;20434;-82
2021/03/15 07:12:43;;;;;;;2.95;2.10;;;5.20;89.90;;;4.18;74.90;97766.91;5100735;28;20394;-81
2021/03/15 07:15:11;;;;;;;3.03;2.30;;;5.20;89.30;;;4.28;73.86;97761.25;5104524;28;20406;-80
2021/03/15 07:17:38;;;;;;;4.50;2.85;;;5.40;88.20;;;4.27;74.05;97757.84;5104559;28;20409;-80
2021/03/15 07:20:08;;;;;;;3.67;2.63;;;5.50;88.20;;;4.17;74.98;97748.75;5087791;28;20422;-80
2021/03/15 07:22:36;;;;;;;3.97;2.20;;;5.40;88.90;;;4.18;75.14;97758.22;5104575;28;20473;-80
2021/03/15 07:25:15;;;;;;;3.63;2.10;;;5.30;89.20;;;4.29;74.53;97768.91;5112307;28;20413;-81
2021/03/15 07:27:44;;;;;;;2.50;2.15;;;5.40;88.80;;;4.21;74.81;97768.31;5111579;28;20519;-80
2021/03/15 07:30:30;;;;;;;5.60;2.20;;;5.40;88.50;;;4.21;74.79;97776.97;5111345;28;20517;-81
2021/03/15 07:33:00;;;;;;;3.65;2.13;;;5.40;88.70;;;4.27;74.52;97767.50;5060557;28;20680;-81
2021/03/15 07:35:28;;;;;;;4.15;2.03;;;5.40;88.70;;;4.22;74.83;97794.28;5057436;28;20409;-80
2021/03/15 07:37:55;;;;;;;3.75;2.25;;;5.40;88.70;;;3.95;74.82;97776.94;5059382;28;20409;-80
2021/03/15 07:40:38;;;;;;;5.90;2.53;;;5.20;89.10;;;3.82;75.62;97784.78;5054084;28;20429;-80
2021/03/15 07:43:06;;;;;;;6.20;2.60;;;5.00;89.60;;;3.58;76.83;97777.47;5059556;28;20401;-81
2021/03/15 07:45:37;;;;;;;2.97;2.20;;;4.90;90.10;;;3.49;77.04;97759.31;5060876;28;20416;-81
2021/03/15 07:48:13;;;;;;;5.13;2.10;;;4.70;90.30;;;3.53;77.05;97751.09;5062708;28;20563;-81
2021/03/15 07:50:41;;;;;;;2.40;2.03;;;4.70;90.40;;;3.70;76.63;97755.75;5066053;28;20421;-80
2021/03/15 07:53:08;;;;;;;5.03;2.42;;;4.80;90.60;;;3.67;77.02;97758.78;5067548;28;20432;-81
2021/03/15 07:55:39;;;;;;;5.35;2.05;;;4.90;90.40;;;3.79;76.31;97759.78;5062082;28;20425;-82
2021/03/15 07:58:30;;;;;;;3.07;1.90;;;4.90;90.20;;;3.82;76.53;97754.16;5067448;28;20476;-81
2021/03/15 08:00:57;;;;;;;5.93;2.60;;;4.90;90.30;;;3.80;76.00;97761.41;5088172;28;20417;-80
2021/03/15 08:03:24;;;;;;;2.67;2.27;;;5.00;89.80;;;3.78;75.88;97752.13;5071560;28;20417;-80
2021/03/15 08:05:51;;;;;;;4.20;2.00;;;5.00;90.00;;;3.77;76.52;97758.38;5069471;28;20425;-80
2021/03/15 08:08:17;;;;;;;2.53;1.90;;;5.00;90.20;;;3.83;76.60;97753.13;5056570;28;20413;-81
2021/03/15 08:10:45;;;;;;;3.88;1.92;;;5.00;90.20;;;3.94;75.90;97756.19;5058799;28;20412;-80
2021/03/15 08:13:13;;;;;;;3.50;1.90;;;5.10;90.10;;;4.07;75.58;97764.06;5056584;28;20429;-81
2021/03/15 08:15:46;;;;;;;4.38;2.08;;;5.10;90.00;;;4.17;75.49;97765.28;5060030;28;20504;-81
2021/03/15 08:18:21;;;;;;;5.45;2.03;;;5.30;89.80;;;4.32;74.67;97777.38;5057657;28;20409;-82
2021/03/15 08:20:52;;;;;;;2.42;1.90;;;5.40;88.80;;;4.36;74.71;97774.13;5059248;28;20440;-80
2021/03/15 08:23:20;;;;;;;1.73;1.60;;;5.40;89.10;;;4.50;74.67;97767.09;5059244;28;20529;-83
2021/03/15 08:25:48;;;;;;;5.18;2.42;;;5.50;89.00;;;4.56;74.78;97774.16;5060658;28;20410;-80
2021/03/15 08:28:16;;;;;;;2.72;1.90;;;5.60;89.10;;;4.61;74.39;97763.84;5060767;28;20424;-81
2021/03/15 08:30:51;;;;;;;3.85;1.80;;;5.70;89.30;;;4.72;74.59;97765.06;5065979;28;20414;-81
2021/03/15 08:33:20;;;;;;;4.77;1.57;;;5.80;88.90;;;4.72;74.42;97776.34;5081636;28;20502;-80
2021/03/15 08:35:52;;;;;;;2.33;1.55;;;5.80;88.50;;;4.83;74.70;97782.78;5100350;28;20416;-81
2021/03/15 08:38:27;;;;;;;2.27;1.70;;;5.90;89.10;;;4.76;74.16;97784.59;5105304;28;20698;-80
2021/03/15 08:41:00;;;;;;;2.50;1.75;;;5.90;88.00;;;4.85;74.29;97788.63;5103681;28;20409;-81
2021/03/15 08:43:39;;;;;;;3.58;1.80;;;5.90;88.20;;;4.76;74.74;97789.84;5103864;28;20696;-81
2021/03/15 08:46:08;;;;;;;3.27;1.90;;;5.90;88.40;;;4.72;74.89;97786.84;5103755;28;20410;-81
2021/03/15 08:48:57;;;;;;;2.90;1.92;;;5.80;88.70;;;4.69;74.54;97800.34;5105521;28;20408;-82
2021/03/15 08:51:46;;;;;;;2.85;2.10;;;5.80;88.60;;;4.72;74.20;97799.16;5094919;28;20418;-82
2021/03/15 08:54:32;;;;;;;3.83;2.00;;;5.80;88.20;;;4.61;75.19;97800.56;5085621;28;20425;-81
2021/03/15 08:56:58;;;;;;;3.20;1.75;;;5.70;88.90;;;4.59;75.16;97795.50;5102686;28;20410;-82
2021/03/15 08:59:32;;;;;;;3.65;1.80;;;5.70;89.00;;;4.61;75.08;97783.00;5107620;28;20406;-79
2021/03/15 09:02:03;;;;;;;3.15;1.90;;;5.70;89.00;;;4.67;75.06;97797.13;5092437;28;20416;-80
2021/03/15 09:04:44;;;;;;;16.57;10.10;;;5.70;89.00;;;4.63;75.49;97804.59;5110028;28;20426;-81
2021/03/15 09:07:46;;;;;;;3.60;1.70;;;5.80;89.30;;;4.64;75.07;97795.72;5088381;28;20434;-80
2021/03/15 09:10:39;;;;;;;5.22;1.50;;;5.80;88.90;;;4.65;74.05;97804.41;5109586;28;20414;-82
2021/03/15 09:13:27;;;;;;;2.38;1.67;;;5.80;88.10;;;4.75;75.07;97814.47;5049412;28;20406;-80
2021/03/15 09:15:58;;;;;;;2.60;1.83;;;5.80;89.10;;;4.79;74.33;97811.25;5104891;28;20489;-80
2021/03/15 09:19:15;;;;;;;1.63;1.50;;;5.90;88.60;;;4.79;74.70;97813.88;5101422;28;20827;-80
2021/03/15 09:22:01;;;;;;;2.03;1.50;;;5.90;88.50;;;4.81;74.94;97811.81;5100259;28;20426;-81
2021/03/15 09:24:55;;;;;;;2.08;1.83;;;5.90;88.90;;;4.87;74.86;97818.09;5102136;28;20394;-81
2021/03/15 09:27:35;;;;;;;3.33;1.75;;;6.00;89.10;;;4.92;74.84;97815.66;5102003;28;20402;-80
2021/03/15 09:30:12;;;;;;;1.83;1.70;;;6.00;88.90;;;5.01;74.74;97817.06;5103042;28;20406;-80
2021/03/15 09:32:42;;;;;;;2.90;1.67;;;6.00;88.80;;;5.05;73.85;97824.31;5104617;28;20470;-80
2021/03/15 09:35:29;;;;;;;1.83;1.52;;;6.10;88.20;;;4.98;74.40;97822.69;5104276;28;20452;-79
2021/03/15 09:38:02;;;;;;;4.50;1.70;;;6.10;87.90;;;5.10;75.05;97822.91;5090706;28;20420;-80
2021/03/15 09:40:34;;;;;;;3.00;1.60;;;6.20;89.10;;;5.11;75.18;97821.88;5088841;28;20551;-80
2021/03/15 09:43:01;;;;;;;2.95;1.80;;;6.20;89.30;;;5.15;74.47;97816.00;5108186;28;20880;-81
2021/03/15 09:45:33;;;;;;;1.67;1.57;;;6.20;88.70;;;5.22;74.19;97814.19;5109729;28;20476;-80
2021/03/15 09:48:00;;;;;;;3.58;1.75;;;6.40;88.20;;;5.30;74.94;97827.06;5107287;28;20406;-82
2021/03/15 09:50:30;;;;;;;3.00;1.75;;;6.40;89.10;;;5.35;74.37;97815.94;5107312;28;20464;-83
2021/03/15 09:53:09;;;;;;;4.15;1.90;;;6.40;88.40;;;5.28;74.89;97823.03;5107300;28;20406;-83
2021/03/15 09:55:35;;;;;;;2.55;1.90;;;6.40;88.90;;;5.23;75.67;97814.97;5108511;28;20819;-84
2021/03/15 09:58:04;;;;;;;1.98;1.80;;;6.40;89.50;;;5.28;75.57;97815.97;5107858;28;20402;-82
2021/03/15 10:00:37;;;;;;;3.13;2.25;;;6.40;89.70;;;5.40;74.84;97821.41;5106655;28;20406;-82
2021/03/15 10:03:04;;;;;;;7.25;4.32;;;6.50;89.30;;;5.53;75.12;97815.28;5104857;28;20401;-81
2021/03/15 10:05:32;;;;;;;2.65;2.28;;;6.50;89.50;;;5.55;75.10;97815.88;5105101;28;20494;-81
2021/03/15 10:07:59;;;;;;;2.20;2.00;;;6.60;89.30;;;5.69;75.16;97822.69;5105410;28;20690;-82
2021/03/15 10:10:27;;;;;;;3.28;2.40;;;6.70;89.50;;;5.77;75.25;97819.84;5105987;28;20444;-82
2021/03/15 10:13:02;;;;;;;3.33;2.40;;;6.80;89.50;;;5.70;74.13;97819.88;5106852;28;20406;-80
2021/03/15 10:15:29;;;;;;;2.90;2.40;;;6.90;88.30;;;5.68;74.67;97831.59;5086144;28;20489;-81
2021/03/15 10:17:55;;;;;;;2.53;2.07;;;6.80;88.50;;;5.38;75.50;97834.72;5104350;28;20406;-81
2021/03/15 10:20:26;;;;;;;2.50;2.30;;;6.60;89.10;;;5.40;75.82;97831.91;5104289;28;20420;-80
2021/03/15 10:22:53;;;;;;;3.20;2.40;;;6.50;89.80;;;5.34;76.65;97833.50;5108370;28;20406;-80
2021/03/15 10:25:19;;;;;;;11.10;3.55;;;6.50;90.40;;;5.30;76.72;97832.31;5107062;28;20432;-80
2021/03/15 10:27:57;;;;;;;4.85;2.50;;;6.40;90.30;;;5.05;77.48;97841.84;5088368;28;20430;-80
2021/03/15 10:30:29;;;;;;;3.55;2.53;;;6.20;90.50;;;5.01;76.90;97851.97;5105918;28;20414;-81
2021/03/15 10:32:56;;;;;;;3.50;2.60;;;6.20;90.30;;;5.02;78.17;97855.41;5109482;28;20413;-79
2021/03/15 10:35:23;;;;;;;3.85;2.55;;;6.20;91.20;;;5.05;78.51;97857.59;5093216;28;20425;-80
2021/03/15 10:38:01;;;;;;;3.58;2.58;;;6.10;91.30;;;5.21;78.03;97845.88;5109084;28;20424;-80
2021/03/15 10:40:28;;;;;;;2.40;2.20;;;6.20;91.30;;;5.14;77.39;97855.56;5108360;28;20542;-80
2021/03/15 10:42:56;;;;;;;2.60;2.40;;;6.30;90.70;;;5.13;76.83;97857.38;5106148;28;20454;-79
2021/03/15 10:45:25;;;;;;;2.92;2.63;;;6.30;90.40;;;5.21;77.77;97851.13;5106812;28;20436;-81
2021/03/15 10:47:58;;;;;;;3.05;2.42;;;6.30;91.00;;;5.36;76.49;97854.31;5108500;28;20429;-81
2021/03/15 10:50:30;;;;;;;2.97;2.60;;;6.40;90.30;;;5.39;76.61;97859.97;5111502;28;20434;-80
2021/03/15 10:52:57;;;;;;;3.05;2.65;;;6.50;90.40;;;5.36;77.26;97862.19;5108520;28;20418;-81
2021/03/15 10:55:34;;;;;;;2.50;2.30;;;6.50;90.80;;;5.59;76.82;97857.28;5106045;28;20478;-80